Longboat Key, Florida
Current Conditions -  °F | °C
As of 9:53 AM on Saturday 25 Oct 2014 (Local Time) from KSRQ Reporting Station
Clear Clear  
Wind Chill: 70°   Ceiling: Unl
Heat Index: 70°   Visibility: 10mi
Dew Point: 53°   Wind: 8mph
Humidity: 55%   Direction: 40°NE
Pressure: 29.99"   Gusts: NA
Location:  27.37°N, 82.62°W
Report Text: KSRQ 251353Z 04007KT 10SM CLR 21/12 A2999 RMK AO2 SLP156 T02110117
Loading
Personal Weather Stations






























Interactive Weather Map
Tropical Storm Tracking
New forecast layout! Learn more

10-Day Weather Forecast

Advertisements
Track Severe Weather on mobile